Future City, Illinois
Current Conditions -  °F | °C
As of 4:35 AM on Saturday 25 Oct 2014 (Local Time) from KCIR Reporting Station
Scattered Clouds Scattered Clouds  
Wind Chill: 57°   Ceiling: Unl
Heat Index: 57°   Visibility: 7mi
Dew Point: 55°   Wind: 3mph
Humidity: 91%   Direction: 180°S
Pressure: 30.04"   Gusts: NA
Location:  37.048°N, 89.2036°W
Report Text: KCIR 250935Z AUTO 18003KT 7SM SCT060 SCT070 14/13 A3004 RMK AO2 T01400125
Loading
Personal Weather Stations






























Interactive Weather Map
Tropical Storm Tracking
New forecast layout! Learn more

10-Day Weather Forecast

Advertisements
Track Severe Weather on mobile